Info Terbaru :
  • Selamat datang dan selamat bermain.

Jackpot

Texas Poker Multi Jackpot System

Kini Telah hadir Jackpot SUPER ROYAL FLUSH

Kini Telah hadir Jackpot 2000 (khusus table VIP keatas).

Ikutilah global jackpot yang tersedia di system kami, dengan system jackpot terbaru dan pertama di indonesia, anda dapat membeli jackpot dengan harga 100 rupiah saja dan menangkan hadiahnya hingga puluhan juta rupiah.

Jackpot bukanlah suatu keharusan untuk dibeli, namun kami memberikan suatu fitur tambahan untuk member tercinta dari www.mpcpoker.com.

Terdapat tiga pilihan harga jackpot yang bisa anda beli yaitu :100,500,1000 dan 2000(khusus table VIP Keatas) rupiah.

Hadiah dari Multi jackpot system www.mpcpoker.com

  1. full house x 10 harga jackpot yang anda beli.
      (contoh:anda membeli 1000 maka:1000 X10 = 10.000)
  2. four of kind x 250 harga jackpot yang anda beli
      (contoh:anda membeli 1000 maka:1000 X250 = 250.000)
  3. Straight flush x 1200
      (contoh:anda membeli 1000 maka:1000 X1200 = 1.200.000)
  4. Royal flush x 10000 harga jackpot yang anda beli
      (contoh:anda membeli 1000 maka:1000 X10000 = 10.000.000)
  5. SUPER ROYAL FLUSH x 30000 harga jackpot yang anda beli
      (contoh:anda membeli 1000 maka:1000 X30000 = 30.000.000)

Kondisi kartu

  1. full house adalah kondisi kartu dimana kartu anda dan kartu tengah dengan total 7 kartu bisa mendapatkan nilai 5 kartu dengan kombinasi 1 tris(three of kind) dan 1 pair, contoh 3 kartu 10 dan 2 kartu 5
  2. Four of kind adalah kondisi kartu dimana kartu anda dan kartu tengah dengan total 7 kartu bisa mendapatkan nilai 5 kartu dengan kombinasi 4 kartu yang sama jumlah dan 1 kartu apapun juga contoh anda mendapatkan 4 buah kartu angka 3 dan 1 kartu apapun.
  3. Staright flush adalah kondisi kartu dimana kartu anda dan kartu tengah dengan total 7 kartu bisa mendapatkan nilai 5 kartu dengan kombinasi seri / staright dengan kembang yang sama contoh : urutan kartu dari angka 5, 6, 7, 8 , 9 10 dengan kembang yg sama misalnya as hati
  4. Royal flush adalah kondisi kartu dimana kartu anda dan kartu tengah dengan total 7 kartu bisa mendapatkan nilai 5 kartu dengan kombinasi seri / staright dengan kembang yang sama tetapi kartu tersebut haruslah dimulai dari 10. contoh 10, Queen, Jack, King dan aces dengan kembang yang sama
  5. Super Royal flush adalah kondisi kartu dimana Kedua kartu anda digabung dengan 3 kartu pertama meja haruslah royal flush. contoh kartu anda 10,Queen kembang sama dan 3 kartu pertama meja adalah Jack, King dan aces dengan kembang yang sama

Demikian adalah penjelasan dari Multi Jackpot www.mpcpoker.com terima kasih dan selamat bermain salam hoki dari kami

Texas Poker Jackpot Winner

TOP SUPER ROYAL FLUSH
No.TanggalNamaPriceWin
116/10 15:29QINARYOSSYSuper Royal flush15,000,000
216/10 13:21DADIDUITTSuper Royal flush3,000,000
316/10 10:18EDONG12Super Royal flush15,000,000
416/10 01:22SINAR001Super Royal flush15,000,000
515/10 16:42PENCI05Super Royal flush15,000,000
TOP ROYAL FLUSH
No.TanggalNamaPriceWin
116/10 20:11PATAT91Royal flush1,000,000
216/10 19:30FISIPUMARoyal flush1,000,000
316/10 19:30BOLONG43Royal flush1,000,000
416/10 18:59CICIK123Royal flush5,000,000
516/10 18:23KAJUNG80Royal flush10,000,000
TOP STRAIGHT FLUSH
No.TanggalNamaPriceWin
116/10 20:26ZHINGGA85Straight Flush120,000
216/10 20:18DIELZStraight Flush600,000
316/10 20:11P80UVBJ1JVStraight Flush120,000
416/10 20:11NAVYA993Straight Flush600,000
516/10 20:07BIGCOLA168Straight Flush600,000
LATEST JACKPOT
No.TanggalNamaPriceWin
116/10 20:27R3M1Full House20,000
216/10 20:27REDZHAFull House10,000
316/10 20:27ME1010Full House5,000
416/10 20:27ALDOT789Full House5,000
516/10 20:27DAWETTA7Full House1,000
616/10 20:27NGEMPOTZFull House1,000
716/10 20:27KUYBOYFull House1,000
816/10 20:27TRADING1Full House5,000
916/10 20:27BDSS6161Full House20,000
1016/10 20:27AAA_AAKKFull House1,000
1116/10 20:27DB8D18EFFull House1,000
1216/10 20:27AVENGER_Full House10,000
1316/10 20:27AVENGERRFull House10,000
1416/10 20:27ADYBL777Full House1,000
1516/10 20:27DOENGJRFull House5,000
1616/10 20:27LOKLAGAFull House10,000
1716/10 20:27H4JIK4RIMFull House1,000
1816/10 20:27Q2JVPVSMM3Full House1,000
1916/10 20:27MITAL11Full House5,000
2016/10 20:27AMWKGF96C1Full House10,000
2116/10 20:27RONGGUR87Full House5,000
2216/10 20:27MXSNVK4DMEFull House5,000
2316/10 20:27GENDUTZSFull House1,000
2416/10 20:27SUMOKENIFull House1,000
2516/10 20:27HG9E339YZFFull House1,000
2616/10 20:27OSE77Full House10,000
2716/10 20:27GALIGI01Full House20,000
2816/10 20:27MENANGEFour Of A Kind25,000
2916/10 20:27DAMS84Full House5,000
3016/10 20:27S1LUM4N77Full House1,000
3116/10 20:27XX08Full House1,000
3216/10 20:27KIMANTAPFull House10,000
3316/10 20:27BDOYSEFull House1,000
3416/10 20:27GALGADODFull House10,000
3516/10 20:26KEYBONFull House1,000
3616/10 20:26CR021195Full House5,000
3716/10 20:26VV009Full House1,000
3816/10 20:26DLE93ILQGEFull House5,000
3916/10 20:26ZHINGGA85Straight Flush120,000
4016/10 20:26AIRASIA99Full House1,000
4116/10 20:26G4L4D14Full House10,000
4216/10 20:26AMBONG86Full House5,000
4316/10 20:26LAK0NIIFull House1,000
4416/10 20:26OPI99Full House10,000
4516/10 20:26JNSPKRFull House5,000
4616/10 20:26FIDRIEFull House1,000
4716/10 20:26OLE20202Full House5,000
4816/10 20:26PEMINDONTAFull House1,000
4916/10 20:26ZIKALIAHFull House1,000
5016/10 20:26J9TROQR7NKFull House1,000

Domino Multi Jackpot System

Ikutilah global jackpot yang tersedia di system kami, dengan system jackpot terbaru dan pertama di indonesia, anda dapat membeli jackpot dengan harga 100 rupiah saja dan menangkan hadiahnya hingga puluhan juta rupiah.

Jackpot bukanlah suatu keharusan untuk dibeli, namun kami memberikan suatu fitur tambahan untuk member tercinta dari www.mpcpoker.com.

Terdapat tiga pilihan harga jackpot yang bisa anda beli yaitu :100,500 dan 1000 rupiah.

Hadiah dari Multi jackpot system www.mpcpoker.com

  1. Murni Kecil x 50 harga jackpot yang anda beli.
      (contoh:anda membeli 1000 maka:1000 X 50 = 50.000)
  2. Murni Besar x 50 harga jackpot yang anda beli
      (contoh:anda membeli 1000 maka:1000 X 50 = 50.000)
  3. BALAK x 100 harga jackpot yang anda beli
      (contoh:anda membeli 1000 maka:1000 X 100 = 100.000)
  4. ENAM DEWA x 6666 harga jackpot yang anda beli
      (contoh:anda membeli 1000 maka:1000 X 6666 = 6.666.000)

Demikian adalah penjelasan dari Multi Jackpot www.mpcpoker.com terima kasih dan selamat bermain salam hoki dari kami

Domino Jackpot Winner

TOP ENAM DEWA
No.TanggalNamaPriceWin
116/10 19:07MAMUN74murni enam6,666,000
216/10 18:40SMILEC99murni enam666,600
316/10 16:21SIKECIL9murni enam6,666,000
416/10 14:49GDREZVCKBVmurni enam3,333,000
516/10 11:26PAHAMPOX01murni enam3,333,000
TOP BALAK
No.TanggalNamaPriceWin
116/10 20:24GAMBLER58balak100,000
216/10 20:22SON6099balak50,000
316/10 20:21CEKI4321balak50,000
416/10 20:20SADIZZZ9balak100,000
516/10 20:18BRONS007balak50,000
LATEST JACKPOT
No.TanggalNamaPriceWin
116/10 20:27OPIK09murni kecil25,000
216/10 20:26TEMPE_007murni besar25,000
316/10 20:25YOGI_62murni kecil50,000
416/10 20:24N494Smurni besar50,000
516/10 20:24SP1DERmurni besar50,000
616/10 20:24AX0QQ6DTOPmurni kecil5,000
716/10 20:24BELCATmurni kecil25,000
816/10 20:24GAMBLER58balak100,000
916/10 20:23VIP_HANZOmurni besar25,000
1016/10 20:23DOKODEOmurni kecil50,000
1116/10 20:23META666murni kecil50,000
1216/10 20:22SON6099balak50,000
1316/10 20:22M45KU5murni besar50,000
1416/10 20:21CIT123murni besar50,000
1516/10 20:21SANGKUR99murni kecil50,000
1616/10 20:21CEKI4321balak50,000
1716/10 20:20B666A906murni besar5,000
1816/10 20:20EMPU69murni kecil50,000
1916/10 20:20SADIZZZ9balak100,000
2016/10 20:20BOTROK24murni kecil50,000
2116/10 20:19OZBORN03murni besar50,000
2216/10 20:19GERYY99murni besar25,000
2316/10 20:18FXJ69SJPZ4murni kecil50,000
2416/10 20:18BRONS007balak50,000
2516/10 20:17BOTOL75murni besar25,000
2616/10 20:15AGIA6666balak100,000
2716/10 20:15PIT99murni kecil50,000
2816/10 20:15CODOT95murni kecil25,000
2916/10 20:15RTBOLOTmurni besar25,000
3016/10 20:15OUHbalak50,000
3116/10 20:15HOCImurni kecil25,000
3216/10 20:14LOWO_IJO99murni besar25,000
3316/10 20:14MA7NOONmurni kecil5,000
3416/10 20:14PWJAYA52balak50,000
3516/10 20:14USTADZ789murni besar25,000
3616/10 20:13HARLI123murni kecil50,000
3716/10 20:12OUHbalak50,000
3816/10 20:12QZPDT7Z4W9murni kecil5,000
3916/10 20:12BINK777murni besar25,000
4016/10 20:11ZZZZN77murni besar50,000
4116/10 20:11LANA121murni besar50,000
4216/10 20:11RTBOLOTmurni besar25,000
4316/10 20:10YOGI_62murni kecil50,000
4416/10 20:10MASBERTO21murni kecil25,000
4516/10 20:10BODAT66murni kecil50,000
4616/10 20:09ANAKBIAKmurni kecil50,000
4716/10 20:08BROTOXXXmurni besar5,000
4816/10 20:06GEKZ27murni besar5,000
4916/10 20:06GOBUYmurni besar50,000
5016/10 20:06CODOT95murni kecil25,000

Ceme Multi Jackpot System

Jackpot dilihat dari gabungan kartu pemain dengan kartu bandar. Bandar harus membeli jackpot sebanyak jumlah player yang sedang duduk. Sebagai contoh bila terdapat 3 pemain duduk bermain, dan bandar memutuskan untuk membeli jackpot Rp 1.000, maka pada periode tersebut bandar akan membeli jackpot sebanyak 3xRp1.000 = Rp3.000.

Jackpot bukanlah suatu keharusan untuk dibeli, namun kami memberikan suatu fitur tambahan untuk member tercinta dari www.mpcpoker.com.

Terdapat tiga pilihan harga jackpot yang bisa anda beli yaitu :100,500 dan 1000 rupiah.

Hadiah dari Multi jackpot system www.mpcpoker.com

  1. Murni Kecil x 50 harga jackpot yang anda beli.
      (contoh:anda membeli 1000 maka:1000 X 50 = 50.000)
  2. Murni Besar x 50 harga jackpot yang anda beli
      (contoh:anda membeli 1000 maka:1000 X 50 = 50.000)
  3. BALAK x 200 harga jackpot yang anda beli
      (contoh:anda membeli 1000 maka:1000 X 200 = 200.000)
  4. ENAM DEWA x 6666 harga jackpot yang anda beli
      (contoh:anda membeli 1000 maka:1000 X 6666 = 6.666.000)

Demikian adalah penjelasan dari Multi Jackpot www.mpcpoker.com terima kasih dan selamat bermain salam hoki dari kami

Ceme Jackpot Winner

TOP ENAM DEWA
No.TanggalNamaPriceWin
116/10 20:22TBKCOYmurni enam6,666,000
216/10 19:54DOYOK41murni enam6,666,000
316/10 19:10AP4T4Rmurni enam6,666,000
416/10 18:48FHA303murni enam6,666,000
516/10 17:35DAHLIA70murni enam3,333,000
TOP BALAK
No.TanggalNamaPriceWin
116/10 20:27DZK99balak200,000
216/10 20:27JUNGKAT17balak100,000
316/10 20:26EMOSI66balak200,000
416/10 20:264NAKTUH4balak200,000
516/10 20:26UBIEbalak200,000
LATEST JACKPOT
No.TanggalNamaPriceWin
116/10 20:27FANDYSGDmurni kecil25,000
216/10 20:27SIBANG00murni kecil5,000
316/10 20:27NANANGDENImurni kecil5,000
416/10 20:27DZK99balak200,000
516/10 20:27JUNGKAT17balak100,000
616/10 20:27RONI2704murni besar50,000
716/10 20:27KOPLIKmurni kecil25,000
816/10 20:27CYGGOMTG6Tmurni besar25,000
916/10 20:26EMOSI66balak200,000
1016/10 20:264NAKTUH4balak200,000
1116/10 20:26UBIEbalak200,000
1216/10 20:26CHONWRZCU2balak200,000
1316/10 20:26UBIEmurni besar50,000
1416/10 20:26CLUB88ESmurni besar5,000
1516/10 20:26JEJE321murni besar25,000
1616/10 20:26RAWA2016murni besar25,000
1716/10 20:26RONI2704balak200,000
1816/10 20:26H4EKY6MA6Tbalak20,000
1916/10 20:26KHULAIFIbalak100,000
2016/10 20:26KUYUS88murni kecil25,000
2116/10 20:25KRIMINAL1murni kecil25,000
2216/10 20:25BIG69murni kecil50,000
2316/10 20:25SINJO90murni besar50,000
2416/10 20:25G4G4LHAHAmurni besar50,000
2516/10 20:25PUSPUS21murni kecil5,000
2616/10 20:25SIBANG00murni besar5,000
2716/10 20:25LITLE_KRISmurni kecil50,000
2816/10 20:25VXN16murni kecil50,000
2916/10 20:25ZK9999murni kecil5,000
3016/10 20:25SALTIGRADAmurni kecil50,000
3116/10 20:25SALTIGRADAbalak200,000
3216/10 20:24H4EKY6MA6Tmurni besar5,000
3316/10 20:24E896CBBAmurni besar25,000
3416/10 20:24LITLE_KRISmurni kecil50,000
3516/10 20:24GRABCAR201murni kecil50,000
3616/10 20:23LITLE_KRISbalak200,000
3716/10 20:23F3A8PYJOK8balak20,000
3816/10 20:23NMWKWXSD9murni kecil25,000
3916/10 20:22DEJUKERmurni kecil5,000
4016/10 20:22ZTEKEK123murni besar5,000
4116/10 20:22D79F0473murni kecil5,000
4216/10 20:22TBKCOYmurni enam6,666,000
4316/10 20:22GILA1305murni besar5,000
4416/10 20:22DUIT_ABDImurni besar5,000
4516/10 20:21LUKDAmurni besar5,000
4616/10 20:20JH77777murni kecil50,000
4716/10 20:20LITLE_KRISmurni besar50,000
4816/10 20:20GRABCAR201murni besar50,000
4916/10 20:20SEEM4balak100,000
5016/10 20:20RIJAL16balak200,000